sensor_id;sensor_type;location;lat;lon;timestamp;temperature;humidity
69204;DHT22;56317;27.658;85.326;2024-01-07T00:01:31;3.80;99.90
69204;DHT22;56317;27.658;85.326;2024-01-07T00:03:58;3.90;99.90
69204;DHT22;56317;27.658;85.326;2024-01-07T00:06:24;3.90;99.90
69204;DHT22;56317;27.658;85.326;2024-01-07T00:08:50;3.90;99.90
69204;DHT22;56317;27.658;85.326;2024-01-07T00:11:16;3.90;99.90
69204;DHT22;56317;27.658;85.326;2024-01-07T00:13:42;4.00;99.90
69204;DHT22;56317;27.658;85.326;2024-01-07T00:16:09;4.00;99.90
69204;DHT22;56317;27.658;85.326;2024-01-07T00:18:35;3.90;99.90
69204;DHT22;56317;27.658;85.326;2024-01-07T00:21:01;3.80;99.90
69204;DHT22;56317;27.658;85.326;2024-01-07T00:23:28;3.80;99.90
69204;DHT22;56317;27.658;85.326;2024-01-07T00:25:54;3.70;99.90
69204;DHT22;56317;27.658;85.326;2024-01-07T00:28:20;3.70;99.90
69204;DHT22;56317;27.658;85.326;2024-01-07T00:30:46;3.70;99.90
69204;DHT22;56317;27.658;85.326;2024-01-07T00:33:13;3.70;99.90
69204;DHT22;56317;27.658;85.326;2024-01-07T00:35:39;3.70;99.90
69204;DHT22;56317;27.658;85.326;2024-01-07T00:38:05;3.70;99.90
69204;DHT22;56317;27.658;85.326;2024-01-07T00:40:31;3.70;99.90
69204;DHT22;56317;27.658;85.326;2024-01-07T00:42:58;3.70;99.90
69204;DHT22;56317;27.658;85.326;2024-01-07T00:45:24;3.80;99.90
69204;DHT22;56317;27.658;85.326;2024-01-07T00:47:50;3.90;99.90
69204;DHT22;56317;27.658;85.326;2024-01-07T00:50:17;3.90;99.90
69204;DHT22;56317;27.658;85.326;2024-01-07T00:52:44;3.90;99.90
69204;DHT22;56317;27.658;85.326;2024-01-07T00:55:12;3.80;99.90
69204;DHT22;56317;27.658;85.326;2024-01-07T00:57:41;3.80;99.90
69204;DHT22;56317;27.658;85.326;2024-01-07T01:00:07;3.70;99.90
69204;DHT22;56317;27.658;85.326;2024-01-07T01:02:33;3.70;99.90
69204;DHT22;56317;27.658;85.326;2024-01-07T01:05:01;3.70;99.90
69204;DHT22;56317;27.658;85.326;2024-01-07T01:07:28;3.60;99.90
69204;DHT22;56317;27.658;85.326;2024-01-07T01:09:54;3.60;99.90
69204;DHT22;56317;27.658;85.326;2024-01-07T01:12:20;3.60;99.90
69204;DHT22;56317;27.658;85.326;2024-01-07T01:14:46;3.60;99.90
69204;DHT22;56317;27.658;85.326;2024-01-07T01:17:13;3.60;99.90
69204;DHT22;56317;27.658;85.326;2024-01-07T01:19:39;3.60;99.90
69204;DHT22;56317;27.658;85.326;2024-01-07T01:22:05;3.70;99.90
69204;DHT22;56317;27.658;85.326;2024-01-07T01:24:31;3.90;99.90
69204;DHT22;56317;27.658;85.326;2024-01-07T01:26:58;3.90;99.90
69204;DHT22;56317;27.658;85.326;2024-01-07T01:29:24;4.00;99.90
69204;DHT22;56317;27.658;85.326;2024-01-07T01:31:50;4.00;99.90
69204;DHT22;56317;27.658;85.326;2024-01-07T01:34:18;4.00;99.90
69204;DHT22;56317;27.658;85.326;2024-01-07T01:36:44;4.10;99.90
69204;DHT22;56317;27.658;85.326;2024-01-07T01:39:10;4.20;99.90
69204;DHT22;56317;27.658;85.326;2024-01-07T01:41:36;4.20;99.90
69204;DHT22;56317;27.658;85.326;2024-01-07T01:44:03;4.40;99.90
69204;DHT22;56317;27.658;85.326;2024-01-07T01:46:29;4.40;99.90
69204;DHT22;56317;27.658;85.326;2024-01-07T01:48:55;4.60;99.90
69204;DHT22;56317;27.658;85.326;2024-01-07T01:51:22;4.70;99.90
69204;DHT22;56317;27.658;85.326;2024-01-07T01:53:48;4.80;99.90
69204;DHT22;56317;27.658;85.326;2024-01-07T01:56:15;4.90;99.90
69204;DHT22;56317;27.658;85.326;2024-01-07T01:58:42;5.10;99.90
69204;DHT22;56317;27.658;85.326;2024-01-07T02:01:09;5.20;99.90
69204;DHT22;56317;27.658;85.326;2024-01-07T02:03:35;5.40;99.90
69204;DHT22;56317;27.658;85.326;2024-01-07T02:06:01;5.50;99.90
69204;DHT22;56317;27.658;85.326;2024-01-07T02:08:28;5.70;99.90
69204;DHT22;56317;27.658;85.326;2024-01-07T02:10:55;5.80;99.90
69204;DHT22;56317;27.658;85.326;2024-01-07T02:13:22;6.00;99.90
69204;DHT22;56317;27.658;85.326;2024-01-07T02:15:48;6.20;99.90
69204;DHT22;56317;27.658;85.326;2024-01-07T02:18:14;6.40;99.90
69204;DHT22;56317;27.658;85.326;2024-01-07T02:20:40;6.60;99.90
69204;DHT22;56317;27.658;85.326;2024-01-07T02:23:07;6.80;99.90
69204;DHT22;56317;27.658;85.326;2024-01-07T02:25:36;7.00;99.90
69204;DHT22;56317;27.658;85.326;2024-01-07T02:28:03;7.20;99.90
69204;DHT22;56317;27.658;85.326;2024-01-07T02:30:29;7.30;99.90
69204;DHT22;56317;27.658;85.326;2024-01-07T02:32:55;7.40;99.90
69204;DHT22;56317;27.658;85.326;2024-01-07T02:35:22;7.60;99.90
69204;DHT22;56317;27.658;85.326;2024-01-07T02:37:48;7.80;99.90
69204;DHT22;56317;27.658;85.326;2024-01-07T02:40:14;8.10;99.90
69204;DHT22;56317;27.658;85.326;2024-01-07T02:42:41;8.20;99.90
69204;DHT22;56317;27.658;85.326;2024-01-07T02:45:07;8.50;99.90
69204;DHT22;56317;27.658;85.326;2024-01-07T02:47:33;8.70;99.90
69204;DHT22;56317;27.658;85.326;2024-01-07T02:50:00;8.90;99.90
69204;DHT22;56317;27.658;85.326;2024-01-07T02:52:26;9.20;99.90
69204;DHT22;56317;27.658;85.326;2024-01-07T02:54:52;9.40;99.90
69204;DHT22;56317;27.658;85.326;2024-01-07T02:57:18;9.60;99.90
69204;DHT22;56317;27.658;85.326;2024-01-07T02:59:44;9.80;99.90
69204;DHT22;56317;27.658;85.326;2024-01-07T03:02:11;9.90;99.90
69204;DHT22;56317;27.658;85.326;2024-01-07T03:04:37;10.10;99.90
69204;DHT22;56317;27.658;85.326;2024-01-07T03:07:03;10.40;99.90
69204;DHT22;56317;27.658;85.326;2024-01-07T03:09:29;10.60;99.90
69204;DHT22;56317;27.658;85.326;2024-01-07T03:11:56;10.80;99.90
69204;DHT22;56317;27.658;85.326;2024-01-07T03:14:22;11.00;99.90
69204;DHT22;56317;27.658;85.326;2024-01-07T03:16:49;11.20;99.90
69204;DHT22;56317;27.658;85.326;2024-01-07T03:19:15;11.50;99.90
69204;DHT22;56317;27.658;85.326;2024-01-07T03:21:41;11.70;99.90
69204;DHT22;56317;27.658;85.326;2024-01-07T03:24:07;12.00;99.90
69204;DHT22;56317;27.658;85.326;2024-01-07T03:26:34;12.20;99.90
69204;DHT22;56317;27.658;85.326;2024-01-07T03:29:00;12.30;99.90
69204;DHT22;56317;27.658;85.326;2024-01-07T03:31:27;12.60;99.90
69204;DHT22;56317;27.658;85.326;2024-01-07T03:33:53;13.00;99.90
69204;DHT22;56317;27.658;85.326;2024-01-07T03:36:20;13.40;99.90
69204;DHT22;56317;27.658;85.326;2024-01-07T03:38:46;13.90;99.90
69204;DHT22;56317;27.658;85.326;2024-01-07T03:41:16;14.50;99.90
69204;DHT22;56317;27.658;85.326;2024-01-07T03:43:48;15.00;99.90
69204;DHT22;56317;27.658;85.326;2024-01-07T03:46:16;15.60;99.90
69204;DHT22;56317;27.658;85.326;2024-01-07T03:48:42;16.20;99.90
69204;DHT22;56317;27.658;85.326;2024-01-07T03:51:08;16.60;99.90
69204;DHT22;56317;27.658;85.326;2024-01-07T03:53:35;17.20;99.90
69204;DHT22;56317;27.658;85.326;2024-01-07T03:56:01;17.70;99.90
69204;DHT22;56317;27.658;85.326;2024-01-07T03:58:27;18.10;99.90
69204;DHT22;56317;27.658;85.326;2024-01-07T04:00:54;18.50;99.90
69204;DHT22;56317;27.658;85.326;2024-01-07T04:03:20;18.90;99.90
69204;DHT22;56317;27.658;85.326;2024-01-07T04:05:46;19.10;98.30
69204;DHT22;56317;27.658;85.326;2024-01-07T04:08:13;19.50;97.70
69204;DHT22;56317;27.658;85.326;2024-01-07T04:10:41;20.30;96.80
69204;DHT22;56317;27.658;85.326;2024-01-07T04:13:08;20.80;93.10
69204;DHT22;56317;27.658;85.326;2024-01-07T04:15:34;21.20;93.10
69204;DHT22;56317;27.658;85.326;2024-01-07T04:18:01;21.80;93.00
69204;DHT22;56317;27.658;85.326;2024-01-07T04:20:28;22.40;91.20
69204;DHT22;56317;27.658;85.326;2024-01-07T04:22:55;22.90;90.20
69204;DHT22;56317;27.658;85.326;2024-01-07T04:25:23;23.40;88.50
69204;DHT22;56317;27.658;85.326;2024-01-07T04:27:49;23.70;84.50
69204;DHT22;56317;27.658;85.326;2024-01-07T04:30:15;24.00;82.20
69204;DHT22;56317;27.658;85.326;2024-01-07T04:32:41;24.40;79.70
69204;DHT22;56317;27.658;85.326;2024-01-07T04:35:08;24.70;77.80
69204;DHT22;56317;27.658;85.326;2024-01-07T04:37:34;25.00;75.80
69204;DHT22;56317;27.658;85.326;2024-01-07T04:40:01;25.30;75.10
69204;DHT22;56317;27.658;85.326;2024-01-07T04:42:28;25.80;74.30
69204;DHT22;56317;27.658;85.326;2024-01-07T04:44:54;26.30;72.00
69204;DHT22;56317;27.658;85.326;2024-01-07T04:47:27;26.70;70.50
69204;DHT22;56317;27.658;85.326;2024-01-07T04:49:54;27.10;69.60
69204;DHT22;56317;27.658;85.326;2024-01-07T04:52:24;27.40;67.70
69204;DHT22;56317;27.658;85.326;2024-01-07T04:54:54;27.70;65.90
69204;DHT22;56317;27.658;85.326;2024-01-07T04:57:20;28.00;65.80
69204;DHT22;56317;27.658;85.326;2024-01-07T04:59:47;28.50;64.80
69204;DHT22;56317;27.658;85.326;2024-01-07T05:02:14;28.80;63.30
69204;DHT22;56317;27.658;85.326;2024-01-07T05:04:40;29.00;62.60
69204;DHT22;56317;27.658;85.326;2024-01-07T05:07:06;29.50;61.30
69204;DHT22;56317;27.658;85.326;2024-01-07T05:09:33;29.90;60.00
69204;DHT22;56317;27.658;85.326;2024-01-07T05:11:59;30.10;59.20
69204;DHT22;56317;27.658;85.326;2024-01-07T05:14:26;30.40;58.70
69204;DHT22;56317;27.658;85.326;2024-01-07T05:16:55;30.40;57.40
69204;DHT22;56317;27.658;85.326;2024-01-07T05:19:21;30.40;56.80
69204;DHT22;56317;27.658;85.326;2024-01-07T05:21:48;30.70;55.80
69204;DHT22;56317;27.658;85.326;2024-01-07T05:24:14;30.70;56.20
69204;DHT22;56317;27.658;85.326;2024-01-07T05:26:44;31.10;55.90
69204;DHT22;56317;27.658;85.326;2024-01-07T05:29:10;31.40;55.30
69204;DHT22;56317;27.658;85.326;2024-01-07T05:31:39;31.40;54.90
69204;DHT22;56317;27.658;85.326;2024-01-07T05:34:06;31.90;54.70
69204;DHT22;56317;27.658;85.326;2024-01-07T05:36:32;32.20;53.60
69204;DHT22;56317;27.658;85.326;2024-01-07T05:38:59;32.50;52.50
69204;DHT22;56317;27.658;85.326;2024-01-07T05:41:25;32.90;52.00
69204;DHT22;56317;27.658;85.326;2024-01-07T05:43:51;33.20;99.90
69204;DHT22;56317;27.658;85.326;2024-01-07T05:46:18;33.50;99.90
69204;DHT22;56317;27.658;85.326;2024-01-07T05:48:45;33.70;99.90
69204;DHT22;56317;27.658;85.326;2024-01-07T05:51:11;34.00;99.90
69204;DHT22;56317;27.658;85.326;2024-01-07T05:53:38;34.20;99.90
69204;DHT22;56317;27.658;85.326;2024-01-07T05:56:05;34.40;99.90
69204;DHT22;56317;27.658;85.326;2024-01-07T05:58:32;34.70;99.90
69204;DHT22;56317;27.658;85.326;2024-01-07T06:00:58;35.10;99.90
69204;DHT22;56317;27.658;85.326;2024-01-07T06:03:26;35.30;99.90
69204;DHT22;56317;27.658;85.326;2024-01-07T06:05:52;35.30;99.90
69204;DHT22;56317;27.658;85.326;2024-01-07T06:08:18;35.50;99.90
69204;DHT22;56317;27.658;85.326;2024-01-07T06:10:44;35.80;99.90
69204;DHT22;56317;27.658;85.326;2024-01-07T06:13:11;35.80;99.90
69204;DHT22;56317;27.658;85.326;2024-01-07T06:15:37;36.00;99.90
69204;DHT22;56317;27.658;85.326;2024-01-07T06:18:03;36.10;99.90
69204;DHT22;56317;27.658;85.326;2024-01-07T06:20:30;36.40;99.90
69204;DHT22;56317;27.658;85.326;2024-01-07T06:22:56;36.40;99.90
69204;DHT22;56317;27.658;85.326;2024-01-07T06:25:22;36.70;99.90
69204;DHT22;56317;27.658;85.326;2024-01-07T06:27:51;36.80;99.90
69204;DHT22;56317;27.658;85.326;2024-01-07T06:30:18;36.80;99.90
69204;DHT22;56317;27.658;85.326;2024-01-07T06:32:45;36.70;99.90
69204;DHT22;56317;27.658;85.326;2024-01-07T06:35:11;36.80;99.90
69204;DHT22;56317;27.658;85.326;2024-01-07T06:37:37;37.10;99.90
69204;DHT22;56317;27.658;85.326;2024-01-07T06:40:04;37.20;99.90
69204;DHT22;56317;27.658;85.326;2024-01-07T06:42:30;37.70;99.90
69204;DHT22;56317;27.658;85.326;2024-01-07T06:44:56;38.20;99.90
69204;DHT22;56317;27.658;85.326;2024-01-07T06:47:23;38.50;99.90
69204;DHT22;56317;27.658;85.326;2024-01-07T06:49:49;38.30;99.90
69204;DHT22;56317;27.658;85.326;2024-01-07T06:52:15;38.30;99.90
69204;DHT22;56317;27.658;85.326;2024-01-07T06:54:42;38.60;99.90
69204;DHT22;56317;27.658;85.326;2024-01-07T06:57:08;38.50;99.90
69204;DHT22;56317;27.658;85.326;2024-01-07T06:59:34;38.00;99.90
69204;DHT22;56317;27.658;85.326;2024-01-07T07:02:00;38.30;99.90
69204;DHT22;56317;27.658;85.326;2024-01-07T07:04:27;38.60;99.90
69204;DHT22;56317;27.658;85.326;2024-01-07T07:06:53;39.20;99.90
69204;DHT22;56317;27.658;85.326;2024-01-07T07:09:19;39.30;99.90
69204;DHT22;56317;27.658;85.326;2024-01-07T07:11:46;39.80;99.90
69204;DHT22;56317;27.658;85.326;2024-01-07T07:14:12;40.10;99.90
69204;DHT22;56317;27.658;85.326;2024-01-07T07:16:38;40.50;99.90
69204;DHT22;56317;27.658;85.326;2024-01-07T07:19:04;40.50;99.90
69204;DHT22;56317;27.658;85.326;2024-01-07T07:21:31;40.60;99.90
69204;DHT22;56317;27.658;85.326;2024-01-07T07:23:57;40.30;99.90
69204;DHT22;56317;27.658;85.326;2024-01-07T07:26:23;39.50;99.90
69204;DHT22;56317;27.658;85.326;2024-01-07T07:28:49;38.90;99.90
69204;DHT22;56317;27.658;85.326;2024-01-07T07:31:16;38.30;99.90
69204;DHT22;56317;27.658;85.326;2024-01-07T07:33:42;38.70;99.90
69204;DHT22;56317;27.658;85.326;2024-01-07T07:36:08;39.10;99.90
69204;DHT22;56317;27.658;85.326;2024-01-07T07:38:35;39.50;99.90
69204;DHT22;56317;27.658;85.326;2024-01-07T07:41:01;39.90;99.90
69204;DHT22;56317;27.658;85.326;2024-01-07T07:43:27;39.70;99.90
69204;DHT22;56317;27.658;85.326;2024-01-07T07:45:55;39.80;99.90
69204;DHT22;56317;27.658;85.326;2024-01-07T07:48:21;40.50;99.90
69204;DHT22;56317;27.658;85.326;2024-01-07T07:50:49;41.00;99.90
69204;DHT22;56317;27.658;85.326;2024-01-07T07:53:15;41.20;99.90
69204;DHT22;56317;27.658;85.326;2024-01-07T07:55:42;41.30;99.90
69204;DHT22;56317;27.658;85.326;2024-01-07T07:58:08;41.10;99.90
69204;DHT22;56317;27.658;85.326;2024-01-07T08:00:35;41.40;99.90
69204;DHT22;56317;27.658;85.326;2024-01-07T08:03:01;41.60;99.90
69204;DHT22;56317;27.658;85.326;2024-01-07T08:05:28;41.40;99.90
69204;DHT22;56317;27.658;85.326;2024-01-07T08:07:54;40.60;99.90
69204;DHT22;56317;27.658;85.326;2024-01-07T08:10:21;40.40;99.90
69204;DHT22;56317;27.658;85.326;2024-01-07T08:12:49;40.20;99.90
69204;DHT22;56317;27.658;85.326;2024-01-07T08:15:15;39.80;99.90
69204;DHT22;56317;27.658;85.326;2024-01-07T08:17:42;38.80;99.90
69204;DHT22;56317;27.658;85.326;2024-01-07T08:20:09;39.40;99.90
69204;DHT22;56317;27.658;85.326;2024-01-07T08:22:36;39.60;99.90
69204;DHT22;56317;27.658;85.326;2024-01-07T08:25:02;40.10;99.90
69204;DHT22;56317;27.658;85.326;2024-01-07T08:27:28;40.50;99.90
69204;DHT22;56317;27.658;85.326;2024-01-07T08:29:55;40.20;99.90
69204;DHT22;56317;27.658;85.326;2024-01-07T08:32:21;40.20;99.90
69204;DHT22;56317;27.658;85.326;2024-01-07T08:34:48;40.50;99.90
69204;DHT22;56317;27.658;85.326;2024-01-07T08:37:14;40.70;99.90
69204;DHT22;56317;27.658;85.326;2024-01-07T08:39:40;39.30;99.90
69204;DHT22;56317;27.658;85.326;2024-01-07T08:42:07;38.70;99.90
69204;DHT22;56317;27.658;85.326;2024-01-07T08:44:34;36.70;99.90
69204;DHT22;56317;27.658;85.326;2024-01-07T08:47:00;37.10;99.90
69204;DHT22;56317;27.658;85.326;2024-01-07T08:49:30;37.80;99.90
69204;DHT22;56317;27.658;85.326;2024-01-07T08:51:58;38.50;99.90
69204;DHT22;56317;27.658;85.326;2024-01-07T08:54:24;38.90;99.90
69204;DHT22;56317;27.658;85.326;2024-01-07T08:56:51;36.70;99.90
69204;DHT22;56317;27.658;85.326;2024-01-07T08:59:17;36.70;99.90
69204;DHT22;56317;27.658;85.326;2024-01-07T09:01:43;37.20;99.90
69204;DHT22;56317;27.658;85.326;2024-01-07T09:04:10;37.80;99.90
69204;DHT22;56317;27.658;85.326;2024-01-07T09:06:36;38.00;99.90
69204;DHT22;56317;27.658;85.326;2024-01-07T09:09:02;38.20;99.90
69204;DHT22;56317;27.658;85.326;2024-01-07T09:11:32;38.60;99.90
69204;DHT22;56317;27.658;85.326;2024-01-07T09:13:58;37.30;99.90
69204;DHT22;56317;27.658;85.326;2024-01-07T09:16:25;36.70;99.90
69204;DHT22;56317;27.658;85.326;2024-01-07T09:18:52;37.10;99.90
69204;DHT22;56317;27.658;85.326;2024-01-07T09:21:18;36.50;99.90
69204;DHT22;56317;27.658;85.326;2024-01-07T09:23:44;34.80;99.90
69204;DHT22;56317;27.658;85.326;2024-01-07T09:26:11;35.00;99.90
69204;DHT22;56317;27.658;85.326;2024-01-07T09:28:37;35.00;99.90
69204;DHT22;56317;27.658;85.326;2024-01-07T09:31:03;34.20;99.90
69204;DHT22;56317;27.658;85.326;2024-01-07T09:33:30;34.80;99.90
69204;DHT22;56317;27.658;85.326;2024-01-07T09:35:56;34.50;99.90
69204;DHT22;56317;27.658;85.326;2024-01-07T09:38:22;33.90;99.90
69204;DHT22;56317;27.658;85.326;2024-01-07T09:40:51;33.90;99.90
69204;DHT22;56317;27.658;85.326;2024-01-07T09:43:19;34.00;99.90
69204;DHT22;56317;27.658;85.326;2024-01-07T09:45:48;34.20;99.90
69204;DHT22;56317;27.658;85.326;2024-01-07T09:48:15;34.20;99.90
69204;DHT22;56317;27.658;85.326;2024-01-07T09:50:41;34.10;99.90
69204;DHT22;56317;27.658;85.326;2024-01-07T09:53:08;33.30;99.90
69204;DHT22;56317;27.658;85.326;2024-01-07T09:55:44;32.70;99.90
69204;DHT22;56317;27.658;85.326;2024-01-07T09:58:11;32.50;99.90
69204;DHT22;56317;27.658;85.326;2024-01-07T10:00:37;32.70;99.90
69204;DHT22;56317;27.658;85.326;2024-01-07T10:03:04;32.30;99.90
69204;DHT22;56317;27.658;85.326;2024-01-07T10:05:31;30.60;99.90
69204;DHT22;56317;27.658;85.326;2024-01-07T10:07:57;30.20;99.90
69204;DHT22;56317;27.658;85.326;2024-01-07T10:10:23;30.50;99.90
69204;DHT22;56317;27.658;85.326;2024-01-07T10:12:49;31.10;99.90
69204;DHT22;56317;27.658;85.326;2024-01-07T10:15:18;30.70;99.90
69204;DHT22;56317;27.658;85.326;2024-01-07T10:17:45;31.00;99.90
69204;DHT22;56317;27.658;85.326;2024-01-07T10:20:11;30.70;99.90
69204;DHT22;56317;27.658;85.326;2024-01-07T10:22:38;29.60;99.90
69204;DHT22;56317;27.658;85.326;2024-01-07T10:25:05;29.00;99.90
69204;DHT22;56317;27.658;85.326;2024-01-07T10:27:35;28.50;99.90
69204;DHT22;56317;27.658;85.326;2024-01-07T10:30:02;27.80;99.90
69204;DHT22;56317;27.658;85.326;2024-01-07T10:32:28;26.80;99.90
69204;DHT22;56317;27.658;85.326;2024-01-07T10:34:57;26.40;99.90
69204;DHT22;56317;27.658;85.326;2024-01-07T10:37:27;25.20;99.90
69204;DHT22;56317;27.658;85.326;2024-01-07T10:39:55;24.50;99.90
69204;DHT22;56317;27.658;85.326;2024-01-07T10:42:26;23.60;99.90
69204;DHT22;56317;27.658;85.326;2024-01-07T10:44:53;21.90;99.90
69204;DHT22;56317;27.658;85.326;2024-01-07T10:47:19;20.80;99.90
69204;DHT22;56317;27.658;85.326;2024-01-07T10:49:46;20.40;99.90
69204;DHT22;56317;27.658;85.326;2024-01-07T10:52:16;19.80;99.90
69204;DHT22;56317;27.658;85.326;2024-01-07T10:54:42;19.00;99.90
69204;DHT22;56317;27.658;85.326;2024-01-07T10:57:15;18.50;99.90
69204;DHT22;56317;27.658;85.326;2024-01-07T10:59:45;18.20;99.90
69204;DHT22;56317;27.658;85.326;2024-01-07T11:02:11;17.70;99.90
69204;DHT22;56317;27.658;85.326;2024-01-07T11:04:42;17.50;1.00
69204;DHT22;56317;27.658;85.326;2024-01-07T11:09:54;17.00;99.90
69204;DHT22;56317;27.658;85.326;2024-01-07T11:12:21;16.60;68.90
69204;DHT22;56317;27.658;85.326;2024-01-07T11:14:48;16.20;70.90
69204;DHT22;56317;27.658;85.326;2024-01-07T11:20:00;15.80;73.50
69204;DHT22;56317;27.658;85.326;2024-01-07T11:22:27;15.50;74.60
69204;DHT22;56317;27.658;85.326;2024-01-07T11:24:57;15.20;77.30
69204;DHT22;56317;27.658;85.326;2024-01-07T11:27:24;15.00;77.60
69204;DHT22;56317;27.658;85.326;2024-01-07T11:30:07;14.90;77.80
69204;DHT22;56317;27.658;85.326;2024-01-07T11:32:35;14.70;78.70
69204;DHT22;56317;27.658;85.326;2024-01-07T11:35:02;14.50;79.20
69204;DHT22;56317;27.658;85.326;2024-01-07T11:37:29;14.40;80.00
69204;DHT22;56317;27.658;85.326;2024-01-07T11:39:56;14.30;79.90
69204;DHT22;56317;27.658;85.326;2024-01-07T11:42:25;14.20;81.50
69204;DHT22;56317;27.658;85.326;2024-01-07T11:44:52;14.20;82.40
69204;DHT22;56317;27.658;85.326;2024-01-07T11:47:20;14.10;84.40
69204;DHT22;56317;27.658;85.326;2024-01-07T11:49:46;14.10;83.20
69204;DHT22;56317;27.658;85.326;2024-01-07T11:52:13;13.90;84.80
69204;DHT22;56317;27.658;85.326;2024-01-07T11:54:40;13.90;85.80
69204;DHT22;56317;27.658;85.326;2024-01-07T11:57:06;13.80;87.60
69204;DHT22;56317;27.658;85.326;2024-01-07T11:59:33;13.70;88.10
69204;DHT22;56317;27.658;85.326;2024-01-07T12:02:00;13.60;91.00
69204;DHT22;56317;27.658;85.326;2024-01-07T12:04:27;13.50;90.60
69204;DHT22;56317;27.658;85.326;2024-01-07T12:06:53;13.50;91.50
69204;DHT22;56317;27.658;85.326;2024-01-07T12:09:20;13.40;92.60
69204;DHT22;56317;27.658;85.326;2024-01-07T12:11:46;13.40;93.60
69204;DHT22;56317;27.658;85.326;2024-01-07T12:14:12;13.30;93.90
69204;DHT22;56317;27.658;85.326;2024-01-07T12:16:39;13.30;95.90
69204;DHT22;56317;27.658;85.326;2024-01-07T12:19:07;13.20;96.70
69204;DHT22;56317;27.658;85.326;2024-01-07T12:21:34;13.10;97.70
69204;DHT22;56317;27.658;85.326;2024-01-07T12:24:00;13.10;99.90
69204;DHT22;56317;27.658;85.326;2024-01-07T12:26:27;12.90;99.10
69204;DHT22;56317;27.658;85.326;2024-01-07T12:28:53;12.70;98.80
69204;DHT22;56317;27.658;85.326;2024-01-07T12:31:28;12.50;99.30
69204;DHT22;56317;27.658;85.326;2024-01-07T12:33:54;12.40;99.90
69204;DHT22;56317;27.658;85.326;2024-01-07T12:36:22;12.30;99.90
69204;DHT22;56317;27.658;85.326;2024-01-07T12:38:49;12.30;99.90
69204;DHT22;56317;27.658;85.326;2024-01-07T12:41:17;12.30;99.90
69204;DHT22;56317;27.658;85.326;2024-01-07T12:43:43;12.20;99.90
69204;DHT22;56317;27.658;85.326;2024-01-07T12:46:09;12.10;99.90
69204;DHT22;56317;27.658;85.326;2024-01-07T12:48:36;12.20;99.90
69204;DHT22;56317;27.658;85.326;2024-01-07T12:51:02;12.30;99.90
69204;DHT22;56317;27.658;85.326;2024-01-07T12:53:28;12.30;99.90
69204;DHT22;56317;27.658;85.326;2024-01-07T12:55:54;12.40;99.90
69204;DHT22;56317;27.658;85.326;2024-01-07T12:58:21;12.20;99.90
69204;DHT22;56317;27.658;85.326;2024-01-07T13:00:47;12.20;99.90
69204;DHT22;56317;27.658;85.326;2024-01-07T13:03:13;12.20;99.90
69204;DHT22;56317;27.658;85.326;2024-01-07T13:05:46;12.30;99.90
69204;DHT22;56317;27.658;85.326;2024-01-07T13:08:15;12.30;99.90
69204;DHT22;56317;27.658;85.326;2024-01-07T13:10:44;12.30;99.90
69204;DHT22;56317;27.658;85.326;2024-01-07T13:13:11;12.30;99.90
69204;DHT22;56317;27.658;85.326;2024-01-07T13:15:38;12.10;99.90
69204;DHT22;56317;27.658;85.326;2024-01-07T13:18:06;12.00;99.90
69204;DHT22;56317;27.658;85.326;2024-01-07T13:20:33;11.80;99.90
69204;DHT22;56317;27.658;85.326;2024-01-07T13:23:01;11.80;99.90
69204;DHT22;56317;27.658;85.326;2024-01-07T13:25:29;11.70;99.90
69204;DHT22;56317;27.658;85.326;2024-01-07T13:27:55;11.50;99.90
69204;DHT22;56317;27.658;85.326;2024-01-07T13:30:21;11.40;99.90
69204;DHT22;56317;27.658;85.326;2024-01-07T13:32:47;11.40;99.90
69204;DHT22;56317;27.658;85.326;2024-01-07T13:35:16;11.40;99.90
69204;DHT22;56317;27.658;85.326;2024-01-07T13:37:42;11.40;99.90
69204;DHT22;56317;27.658;85.326;2024-01-07T13:40:09;11.60;99.90
69204;DHT22;56317;27.658;85.326;2024-01-07T13:42:40;11.60;99.90
69204;DHT22;56317;27.658;85.326;2024-01-07T13:45:06;11.60;99.90
69204;DHT22;56317;27.658;85.326;2024-01-07T13:47:32;11.60;99.90
69204;DHT22;56317;27.658;85.326;2024-01-07T13:50:01;11.50;99.90
69204;DHT22;56317;27.658;85.326;2024-01-07T13:52:29;11.40;99.90
69204;DHT22;56317;27.658;85.326;2024-01-07T13:54:55;11.20;99.90
69204;DHT22;56317;27.658;85.326;2024-01-07T13:57:22;11.10;99.90
69204;DHT22;56317;27.658;85.326;2024-01-07T13:59:49;11.00;99.90
69204;DHT22;56317;27.658;85.326;2024-01-07T14:02:15;10.90;99.90
69204;DHT22;56317;27.658;85.326;2024-01-07T14:04:45;10.90;99.90
69204;DHT22;56317;27.658;85.326;2024-01-07T14:07:11;10.70;99.90
69204;DHT22;56317;27.658;85.326;2024-01-07T14:09:38;10.70;99.90
69204;DHT22;56317;27.658;85.326;2024-01-07T14:12:05;10.80;99.90
69204;DHT22;56317;27.658;85.326;2024-01-07T14:14:31;10.90;99.90
69204;DHT22;56317;27.658;85.326;2024-01-07T14:16:59;11.00;99.90
69204;DHT22;56317;27.658;85.326;2024-01-07T14:19:25;11.10;99.90
69204;DHT22;56317;27.658;85.326;2024-01-07T14:21:52;11.10;99.90
69204;DHT22;56317;27.658;85.326;2024-01-07T14:24:18;11.00;99.90
69204;DHT22;56317;27.658;85.326;2024-01-07T14:26:44;10.90;99.90
69204;DHT22;56317;27.658;85.326;2024-01-07T14:29:11;10.90;99.90
69204;DHT22;56317;27.658;85.326;2024-01-07T14:31:39;10.90;99.90
69204;DHT22;56317;27.658;85.326;2024-01-07T14:34:05;10.80;99.90
69204;DHT22;56317;27.658;85.326;2024-01-07T14:36:31;10.70;99.90
69204;DHT22;56317;27.658;85.326;2024-01-07T14:38:58;10.70;99.90
69204;DHT22;56317;27.658;85.326;2024-01-07T14:41:24;10.50;99.90
69204;DHT22;56317;27.658;85.326;2024-01-07T14:43:50;10.60;99.90
69204;DHT22;56317;27.658;85.326;2024-01-07T14:46:17;10.50;99.90
69204;DHT22;56317;27.658;85.326;2024-01-07T14:48:43;10.50;99.90
69204;DHT22;56317;27.658;85.326;2024-01-07T14:51:09;10.30;99.90
69204;DHT22;56317;27.658;85.326;2024-01-07T14:53:36;10.20;99.90
69204;DHT22;56317;27.658;85.326;2024-01-07T14:56:02;10.10;99.90
69204;DHT22;56317;27.658;85.326;2024-01-07T14:58:28;10.10;99.90
69204;DHT22;56317;27.658;85.326;2024-01-07T15:00:55;10.00;99.90
69204;DHT22;56317;27.658;85.326;2024-01-07T15:03:24;10.00;99.90
69204;DHT22;56317;27.658;85.326;2024-01-07T15:05:51;10.00;99.90
69204;DHT22;56317;27.658;85.326;2024-01-07T15:08:17;10.00;99.90
69204;DHT22;56317;27.658;85.326;2024-01-07T15:10:44;9.90;99.90
69204;DHT22;56317;27.658;85.326;2024-01-07T15:13:10;9.90;99.90
69204;DHT22;56317;27.658;85.326;2024-01-07T15:15:37;9.90;99.90
69204;DHT22;56317;27.658;85.326;2024-01-07T15:18:03;9.70;99.90
69204;DHT22;56317;27.658;85.326;2024-01-07T15:20:29;9.70;99.90
69204;DHT22;56317;27.658;85.326;2024-01-07T15:22:58;9.70;99.90